Meteo Giornale » Osservazioni meteo Stati Uniti (USA) » Indianapolis

ore: 16:54 - Osservazioni Meteo Indianapolis
Lat. 39° 43' N Lon. 86° 16' W Alt. 243 metri s.l.m.

poco_nuvoloso

35 °C

Poco Nuvoloso

Temp. 24 Ore

23 °C

35 °C

Ovest/Sud-Ovest

22.2 Km/h

Dew point 21 °C

Umidità 44 %

Visibilità  10 Km

Il sole sorge alle ore 07:13

Il sole tramonta alle ore 20:16

Data e Ora Cielo e Fenomeni T °C DP °C Um. % Pres. hPa Vis. km Vento km/h
Oggi h: 16:54 poco_nuvoloso Poco Nuvoloso 35 21 44 1016 10 O/SO 22.2
Oggi h: 15:54 poco_nuvoloso Poco Nuvoloso 35 22 47 1016 10 SO 20.3
Oggi h: 14:54 poco_nuvoloso Poco Nuvoloso 34 22 49 1017 10 SO 27.8
Oggi h: 13:54 poco_nuvoloso Poco Nuvoloso 34 22 49 1017 10 SO 24
Oggi h: 12:54 poco_nuvoloso Poco Nuvoloso 33 21 49 1018 10 O/SO 18.5
Oggi h: 11:54 nuvoloso Nuvoloso 31 22 58 1018 10 SO 18.5
Oggi h: 10:54 molto_nuvoloso Molto Nuvoloso 29 22 66 1018 10 SO 14.8
Oggi h: 09:54 molto_nuvoloso Molto Nuvoloso 28 22 69 1018 10 S/SO 18.5
Oggi h: 08:54 molto_nuvoloso Molto Nuvoloso 26 21 73 1018 10 SO 14.8
Oggi h: 07:54 molto_nuvoloso Molto Nuvoloso 23 21 88 1018 10 S/SO 11.1
Oggi h: 06:54 molto_nuvoloso Molto Nuvoloso 24 21 83 1017 10 SO 13
Oggi h: 05:54 sereno Sereno 23 21 88 1017 10 SO 11.1
Oggi h: 04:54 sereno Sereno 24 21 83 1017 10 SO 9.3
Oggi h: 03:54 sereno Sereno 25 21 78 1017 10 SO 14.8
Oggi h: 02:54 sereno Sereno 25 21 78 1017 10 SO 11.1
Oggi h: 01:54 sereno Sereno 26 22 78 1017 10 SO 13
Oggi h: 00:54 sereno Sereno 26 22 78 1017 10 S 20.3
Ieri h: 23:54 sereno Sereno 27 22 74 1017 10 S 13
Ieri h: 22:54 sereno Sereno 27 23 78 1017 10 S 14.8
Ieri h: 21:54 sereno Sereno 28 23 74 1017 10 S 13
Ieri h: 20:54 poco_nuvoloso Poco Nuvoloso 29 23 70 1016 10 S 16.7
Ieri h: 19:54 poco_nuvoloso Poco Nuvoloso 31 22 58 1016 10 S 16.7
Ieri h: 18:54 poco_nuvoloso Poco Nuvoloso 32 22 55 1016 10 S/SO 18.5
Ieri h: 17:54 nuvoloso Nuvoloso 33 21 49 1016 10 SO 22.2